FBO Line Technician (Merritt Island)

Apply Today!

Space Coast Aviation, a 2Fly Group company, is a full-service FBO that provide a variety of services to customers. We’re looking for a Line Technician to join our team in Merritt Island (KCOI).  Position is available immediately and requires motivated, reliable and willing-to-learn individuals.

Ideal Candidates Should Posses:

  • US Resident/Citizen with legal right-to-work status

Job Duties and Responsibilities:

  • Full-time, hourly position
  • Must have flexibility with scheduling and available to work some weekends
  • Marshaling inbound and outbound aircraft
  • Ensure aircraft are secured
  • Assist with unloading and loading baggage for customers and/or crewmembers
  • Airplane Duties: refueling, towing, cleaning (interior/exterior), vacuuming, washing
  • Rental Car Duties: light maintenance, cleaning (interior/exterior), vacuuming, washing
  • Student Accommodations: light maintenance and occasional inspections

Expected pay based on experience. This position reports directly to the Line Service Supervisor.

SUBMIT YOUR RESUME

 

Verification

Airport Information

Identifier: KCOI
Non-Towered
Runway: 11 / 29
3601 X 75 ft
Surface: Asphalt

CTAF/UNICOM: 122.975
AWOS-3: 119.025
ORL APP: 132.65

Area Weather

Patrick AFB (KCOF) METAR:

KCOF 230858Z AUTO 15005KT 10SM FEW070 24/21 A2986 RMK AO2 SLP116 T02410206 57014 $

Titusville (KTIX) METAR:

KTIX 230047Z 13014KT 7SM FEW019 BKN090 24/21 A2991 RMK LAST

Melbourne (KMLB) METAR:

KMLB 230853Z AUTO 00000KT 10SM OVC070 23/19 A2987 RMK AO2 SLP113 T02330194 56013

Hours of Operation

Mon: 7:00am - 8:00pm EST
Tue: 7:00am - 8:00pm EST
Wed: 7:00am - 8:00pm EST
Thu: 7:00am - 8:00pm EST
Fri: 7:00am - 8:00pm EST
Sat: 7:00am - 8:00pm EST
Sun: 7:00am - 8:00pm EST

Contact Us

Merritt Island Airport
900 Airport Road
Merritt Island, FL 32952

P: +1 (321) 453-2222